createdAt,value
2022-11-27T00:01:21.074Z,7.37
2022-11-27T00:03:48.250Z,7.37
2022-11-27T00:06:21.480Z,7.43
2022-11-27T00:08:49.078Z,7.45
2022-11-27T00:11:21.394Z,7.41
2022-11-27T00:13:49.783Z,7.35
2022-11-27T00:16:17.972Z,7.35
2022-11-27T00:18:45.373Z,7.37
2022-11-27T00:21:19.052Z,7.34
2022-11-27T00:23:45.753Z,7.44
2022-11-27T00:26:15.090Z,7.47
2022-11-27T00:28:42.087Z,7.42
2022-11-27T00:31:29.140Z,7.46
2022-11-27T00:34:00.981Z,7.48
2022-11-27T00:36:29.142Z,7.54
2022-11-27T00:38:56.088Z,7.55
2022-11-27T00:41:25.241Z,7.59
2022-11-27T00:43:52.981Z,7.56
2022-11-27T00:46:27.896Z,7.41
2022-11-27T00:48:56.216Z,7.40
2022-11-27T00:51:24.352Z,7.42
2022-11-27T00:53:51.650Z,7.42
2022-11-27T00:56:25.275Z,7.37
2022-11-27T00:58:52.942Z,7.30
2022-11-27T01:01:27.261Z,7.32
2022-11-27T01:03:55.973Z,7.35
2022-11-27T01:06:22.904Z,7.42
2022-11-27T01:08:50.005Z,7.40
2022-11-27T01:11:19.458Z,7.32
2022-11-27T01:13:46.692Z,7.30
2022-11-27T01:16:20.271Z,7.31
2022-11-27T01:18:48.751Z,7.32
2022-11-27T01:21:18.440Z,7.34
2022-11-27T01:23:45.588Z,7.28
2022-11-27T01:26:12.913Z,7.29
2022-11-27T01:28:40.612Z,7.31
2022-11-27T01:31:10.405Z,7.34
2022-11-27T01:33:37.166Z,7.32
2022-11-27T01:36:06.054Z,7.37
2022-11-27T01:38:33.254Z,7.32
2022-11-27T01:41:07.340Z,7.33
2022-11-27T01:43:42.061Z,7.32
2022-11-27T01:46:30.003Z,7.24
2022-11-27T01:49:03.794Z,7.24
2022-11-27T01:51:31.468Z,7.28
2022-11-27T01:53:58.710Z,7.30
2022-11-27T01:56:27.117Z,7.31
2022-11-27T01:58:54.962Z,7.41
2022-11-27T02:01:24.353Z,7.42
2022-11-27T02:03:51.131Z,7.40
2022-11-27T02:06:17.775Z,7.27
2022-11-27T02:08:44.572Z,7.27
2022-11-27T02:11:18.120Z,7.25
2022-11-27T02:13:58.010Z,7.27
2022-11-27T02:17:09.160Z,7.26
2022-11-27T02:20:01.964Z,7.23
2022-11-27T02:22:56.100Z,7.30
2022-11-27T02:25:58.679Z,7.23
2022-11-27T02:29:03.384Z,7.23
2022-11-27T02:32:02.129Z,7.24
2022-11-27T02:34:43.894Z,7.25
2022-11-27T02:37:31.218Z,7.27
2022-11-27T02:40:27.165Z,7.30
2022-11-27T02:43:01.414Z,7.31
2022-11-27T02:45:41.865Z,7.33
2022-11-27T02:48:10.175Z,7.31
2022-11-27T02:50:39.360Z,7.32
2022-11-27T02:53:13.764Z,7.33
2022-11-27T02:55:42.350Z,7.39
2022-11-27T02:58:16.695Z,7.39
2022-11-27T03:00:46.379Z,7.44
2022-11-27T03:03:17.360Z,7.45
2022-11-27T03:05:47.513Z,7.46
2022-11-27T03:08:25.761Z,7.40
2022-11-27T03:10:57.966Z,7.31
2022-11-27T03:13:25.907Z,7.39
2022-11-27T03:16:10.249Z,7.41
2022-11-27T03:19:00.432Z,7.37
2022-11-27T03:21:34.934Z,7.33
2022-11-27T03:24:01.818Z,7.37
2022-11-27T03:26:28.548Z,7.43
2022-11-27T03:28:56.983Z,7.38
2022-11-27T03:31:24.141Z,7.40
2022-11-27T03:33:51.215Z,7.38
2022-11-27T03:36:20.262Z,7.35
2022-11-27T03:38:48.855Z,7.40
2022-11-27T03:41:26.923Z,7.40
2022-11-27T03:44:12.214Z,7.33
2022-11-27T03:46:39.217Z,7.39
2022-11-27T03:49:53.470Z,7.29
2022-11-27T03:52:26.385Z,7.28
2022-11-27T03:55:17.767Z,7.27
2022-11-27T03:57:44.397Z,7.37
2022-11-27T04:00:12.081Z,7.29
2022-11-27T04:02:47.772Z,7.29
2022-11-27T04:05:15.667Z,7.29
2022-11-27T04:07:42.686Z,7.29
2022-11-27T04:10:10.860Z,7.35
2022-11-27T04:12:37.869Z,7.39
2022-11-27T04:15:05.901Z,7.33
2022-11-27T04:17:32.725Z,7.39
2022-11-27T04:19:59.594Z,7.43
2022-11-27T04:22:26.265Z,7.45
2022-11-27T04:24:53.030Z,7.35
2022-11-27T04:27:19.690Z,7.35
2022-11-27T04:29:46.401Z,7.32
2022-11-27T04:32:13.057Z,7.30
2022-11-27T04:34:39.998Z,7.31
2022-11-27T04:37:06.818Z,7.30
2022-11-27T04:39:33.701Z,7.25
2022-11-27T04:42:00.378Z,7.34
2022-11-27T04:44:27.153Z,7.34
2022-11-27T04:46:54.054Z,7.37
2022-11-27T04:49:20.824Z,7.35
2022-11-27T04:51:47.680Z,7.24
2022-11-27T04:54:14.346Z,7.30
2022-11-27T04:56:40.982Z,7.25
2022-11-27T04:59:07.930Z,7.27
2022-11-27T05:01:34.746Z,7.19
2022-11-27T05:04:01.450Z,7.32
2022-11-27T05:06:28.142Z,7.23
2022-11-27T05:09:01.856Z,7.26
2022-11-27T05:11:30.496Z,7.13
2022-11-27T05:14:16.871Z,7.15
2022-11-27T05:16:55.110Z,7.16
2022-11-27T05:19:22.729Z,7.16
2022-11-27T05:21:50.678Z,7.13
2022-11-27T05:24:19.250Z,7.13
2022-11-27T05:26:46.550Z,7.10
2022-11-27T05:29:14.471Z,7.14
2022-11-27T05:31:42.156Z,7.07
2022-11-27T05:34:09.120Z,7.03
2022-11-27T05:36:36.542Z,7.02
2022-11-27T05:39:06.317Z,7.05
2022-11-27T05:41:34.241Z,7.07
2022-11-27T05:44:00.940Z,7.01
2022-11-27T05:46:27.831Z,7.07
2022-11-27T05:48:54.569Z,7.04
2022-11-27T05:51:21.355Z,7.04
2022-11-27T05:53:48.224Z,7.02
2022-11-27T05:56:17.426Z,7.02
2022-11-27T05:58:46.034Z,6.97
2022-11-27T06:01:14.149Z,6.94
2022-11-27T06:03:41.006Z,6.99
2022-11-27T06:06:09.409Z,7.01
2022-11-27T06:08:40.428Z,6.93
2022-11-27T06:11:12.749Z,6.97
2022-11-27T06:13:40.298Z,6.87
2022-11-27T06:16:22.230Z,6.83
2022-11-27T06:18:51.182Z,6.88
2022-11-27T06:21:19.156Z,6.86
2022-11-27T06:23:45.986Z,6.74
2022-11-27T06:26:16.191Z,7.03
2022-11-27T06:28:43.322Z,6.81
2022-11-27T06:31:17.447Z,6.75
2022-11-27T06:33:46.111Z,6.73
2022-11-27T06:36:12.867Z,6.67
2022-11-27T06:38:39.784Z,6.66
2022-11-27T06:41:15.640Z,6.61
2022-11-27T06:43:42.786Z,6.63
2022-11-27T06:46:13.970Z,6.60
2022-11-27T06:48:41.177Z,6.55
2022-11-27T06:51:11.373Z,6.49
2022-11-27T06:53:38.933Z,6.42
2022-11-27T06:56:13.345Z,6.36
2022-11-27T06:58:40.751Z,6.24
2022-11-27T07:01:10.818Z,6.23
2022-11-27T07:03:37.726Z,6.17
2022-11-27T07:06:06.942Z,6.21
2022-11-27T07:08:34.815Z,6.14
2022-11-27T07:11:03.535Z,6.16
2022-11-27T07:13:31.316Z,6.09
2022-11-27T07:16:03.215Z,6.08
2022-11-27T07:18:30.057Z,6.08
2022-11-27T07:20:56.996Z,6.00
2022-11-27T07:23:23.639Z,6.06
2022-11-27T07:25:50.414Z,6.04
2022-11-27T07:28:19.116Z,6.05
2022-11-27T07:30:53.596Z,6.00
2022-11-27T07:33:20.322Z,5.95
2022-11-27T07:35:47.003Z,5.98
2022-11-27T07:38:13.825Z,6.11
2022-11-27T07:40:40.549Z,6.02
2022-11-27T07:43:07.538Z,6.02
2022-11-27T07:45:34.302Z,6.05
2022-11-27T07:48:00.999Z,6.10
2022-11-27T07:50:27.762Z,6.11
2022-11-27T07:52:54.445Z,6.11
2022-11-27T07:55:21.202Z,6.08
2022-11-27T07:57:47.992Z,6.40
2022-11-27T08:00:15.155Z,6.22
2022-11-27T08:02:41.905Z,6.09
2022-11-27T08:05:12.703Z,6.10
2022-11-27T08:07:40.266Z,6.16
2022-11-27T08:10:07.938Z,6.16
2022-11-27T08:12:34.586Z,6.21
2022-11-27T08:15:01.621Z,6.25
2022-11-27T08:17:28.280Z,6.39
2022-11-27T08:19:55.169Z,6.43
2022-11-27T08:22:22.380Z,6.57
2022-11-27T08:24:52.005Z,6.63
2022-11-27T08:27:19.340Z,6.67
2022-11-27T08:29:46.891Z,6.89
2022-11-27T08:32:14.448Z,6.95
2022-11-27T08:34:41.299Z,7.11
2022-11-27T08:37:08.171Z,7.31
2022-11-27T08:39:35.719Z,7.12
2022-11-27T08:42:02.569Z,7.07
2022-11-27T08:44:29.274Z,7.08
2022-11-27T08:46:56.107Z,6.94
2022-11-27T08:49:22.987Z,6.87
2022-11-27T08:51:49.645Z,7.02
2022-11-27T08:54:16.559Z,7.12
2022-11-27T08:56:43.286Z,6.99
2022-11-27T08:59:09.941Z,7.07
2022-11-27T09:01:36.747Z,7.15
2022-11-27T09:04:03.740Z,7.16
2022-11-27T09:06:33.746Z,7.20
2022-11-27T09:09:02.986Z,7.30
2022-11-27T09:11:31.962Z,7.64
2022-11-27T09:14:00.497Z,8.18
2022-11-27T09:16:30.165Z,8.32
2022-11-27T09:18:58.917Z,8.80
2022-11-27T09:21:27.278Z,9.12
2022-11-27T09:23:57.459Z,9.32
2022-11-27T09:26:25.786Z,9.59
2022-11-27T09:28:54.084Z,9.74
2022-11-27T09:31:22.786Z,9.94
2022-11-27T09:33:50.101Z,9.92
2022-11-27T09:36:20.019Z,10.27
2022-11-27T09:38:47.043Z,10.23
2022-11-27T09:41:43.848Z,10.44
2022-11-27T09:44:22.333Z,10.46
2022-11-27T09:46:51.330Z,11.02
2022-11-27T09:49:24.594Z,11.07
2022-11-27T09:52:04.046Z,10.39
2022-11-27T09:54:37.228Z,11.45
2022-11-27T09:57:05.739Z,11.02
2022-11-27T09:59:53.513Z,10.88
2022-11-27T10:02:32.088Z,10.59
2022-11-27T10:05:16.953Z,10.15
2022-11-27T10:08:03.242Z,9.40
2022-11-27T10:11:46.778Z,8.97
2022-11-27T10:14:22.110Z,9.03
2022-11-27T10:16:59.799Z,8.72
2022-11-27T10:19:42.811Z,8.91
2022-11-27T10:22:26.152Z,8.33
2022-11-27T10:25:18.092Z,8.46
2022-11-27T10:28:23.824Z,8.50
2022-11-27T10:31:11.905Z,8.32
2022-11-27T10:33:45.302Z,8.62
2022-11-27T10:36:22.241Z,8.30
2022-11-27T10:38:49.171Z,8.47
2022-11-27T10:44:22.600Z,8.71
2022-11-27T10:46:53.830Z,8.81
2022-11-27T10:49:20.677Z,8.95
2022-11-27T10:51:47.377Z,8.93
2022-11-27T10:54:29.220Z,8.96
2022-11-27T10:57:33.522Z,9.16
2022-11-27T11:00:06.559Z,9.52
2022-11-27T11:02:37.217Z,8.62
2022-11-27T11:08:18.782Z,8.21
2022-11-27T11:10:54.631Z,8.19
2022-11-27T11:13:27.904Z,7.85
2022-11-27T11:15:56.262Z,7.55
2022-11-27T11:18:35.102Z,7.43
2022-11-27T11:21:05.455Z,7.50
2022-11-27T11:23:34.154Z,7.34
2022-11-27T11:26:05.627Z,7.55
2022-11-27T11:28:39.719Z,7.68
2022-11-27T11:31:09.706Z,7.71
2022-11-27T11:33:48.644Z,7.89
2022-11-27T11:36:15.614Z,7.96
2022-11-27T11:38:46.233Z,8.16
2022-11-27T11:41:13.708Z,8.14
2022-11-27T11:43:41.426Z,8.30
2022-11-27T11:46:18.244Z,8.46
2022-11-27T11:48:55.727Z,8.83
2022-11-27T11:51:34.874Z,8.63
2022-11-27T11:54:17.933Z,8.48
2022-11-27T11:56:52.301Z,8.20
2022-11-27T11:59:31.609Z,8.47
2022-11-27T12:01:58.856Z,8.51
2022-11-27T12:05:06.403Z,8.06
2022-11-27T12:08:04.041Z,8.24
2022-11-27T12:11:03.698Z,8.23
2022-11-27T12:13:45.241Z,8.00
2022-11-27T12:16:35.131Z,7.71
2022-11-27T12:19:17.074Z,7.50
2022-11-27T12:22:07.870Z,7.61
2022-11-27T12:24:51.973Z,7.69
2022-11-27T12:27:51.792Z,7.64
2022-11-27T12:30:24.226Z,7.67
2022-11-27T12:33:33.565Z,7.56
2022-11-27T12:36:26.820Z,7.55
2022-11-27T12:39:15.451Z,7.49
2022-11-27T12:42:02.830Z,7.79
2022-11-27T12:45:01.795Z,7.78
2022-11-27T12:47:40.407Z,7.96
2022-11-27T12:50:23.928Z,7.79
2022-11-27T12:53:02.581Z,7.82
2022-11-27T12:55:33.069Z,7.62
2022-11-27T12:58:06.382Z,7.67
2022-11-27T13:00:38.102Z,7.65
2022-11-27T13:03:16.113Z,7.76
2022-11-27T13:06:06.463Z,7.62
2022-11-27T13:08:52.634Z,7.48
2022-11-27T13:11:23.897Z,7.41
2022-11-27T13:14:03.162Z,7.44
2022-11-27T13:16:50.138Z,7.45
2022-11-27T13:19:30.495Z,7.24
2022-11-27T13:21:58.701Z,7.32
2022-11-27T13:24:28.321Z,7.12
2022-11-27T13:27:06.004Z,7.16
2022-11-27T13:29:58.988Z,7.02
2022-11-27T13:32:38.050Z,7.00
2022-11-27T13:35:17.619Z,7.07
2022-11-27T13:37:45.331Z,7.19
2022-11-27T13:40:26.769Z,7.16
2022-11-27T13:42:56.236Z,7.00
2022-11-27T13:45:28.523Z,7.04
2022-11-27T13:47:58.034Z,6.98
2022-11-27T13:50:30.852Z,7.01
2022-11-27T13:53:05.069Z,7.00
2022-11-27T13:55:51.660Z,6.98
2022-11-27T13:58:41.382Z,6.86
2022-11-27T14:01:26.476Z,6.94
2022-11-27T14:03:53.472Z,6.75
2022-11-27T14:06:20.137Z,6.81
2022-11-27T14:09:01.526Z,6.66
2022-11-27T14:11:44.743Z,6.72
2022-11-27T14:14:26.598Z,6.70
2022-11-27T14:16:57.654Z,6.63
2022-11-27T14:19:33.805Z,6.64
2022-11-27T14:22:14.582Z,6.49
2022-11-27T14:24:47.193Z,6.53
2022-11-27T14:27:20.330Z,6.58
2022-11-27T14:29:50.688Z,6.57
2022-11-27T14:32:19.830Z,6.94
2022-11-27T14:34:50.734Z,6.65
2022-11-27T14:37:26.531Z,6.53
2022-11-27T14:39:53.833Z,6.52
2022-11-27T14:42:29.074Z,6.48
2022-11-27T14:45:10.804Z,6.36
2022-11-27T14:47:41.081Z,6.43
2022-11-27T14:50:14.129Z,6.35
2022-11-27T14:52:43.730Z,6.37
2022-11-27T14:55:16.389Z,6.42
2022-11-27T14:57:48.670Z,6.41
2022-11-27T15:00:27.270Z,6.38
2022-11-27T15:02:54.658Z,6.33
2022-11-27T15:05:29.078Z,6.30
2022-11-27T15:07:58.446Z,6.37
2022-11-27T15:10:31.715Z,6.41
2022-11-27T15:13:00.380Z,6.40
2022-11-27T15:15:29.873Z,6.41
2022-11-27T15:18:06.705Z,6.33
2022-11-27T15:20:42.393Z,6.33
2022-11-27T15:23:21.224Z,6.28
2022-11-27T15:25:52.786Z,6.27
2022-11-27T15:28:37.855Z,6.37
2022-11-27T15:31:23.131Z,6.25
2022-11-27T15:34:07.004Z,6.20
2022-11-27T15:36:50.349Z,6.17
2022-11-27T15:39:33.670Z,6.13
2022-11-27T15:42:02.522Z,6.13
2022-11-27T15:44:31.785Z,6.20
2022-11-27T15:47:01.408Z,6.19
2022-11-27T15:49:28.559Z,6.19
2022-11-27T15:51:56.752Z,6.14
2022-11-27T15:54:24.513Z,6.06
2022-11-27T15:56:51.510Z,6.12
2022-11-27T15:59:20.807Z,6.12
2022-11-27T16:01:49.433Z,6.11
2022-11-27T16:04:17.008Z,6.05
2022-11-27T16:06:44.072Z,6.11
2022-11-27T16:09:10.845Z,6.08
2022-11-27T16:11:37.665Z,6.04
2022-11-27T16:14:04.629Z,6.11
2022-11-27T16:16:31.592Z,6.11
2022-11-27T16:19:00.706Z,6.06
2022-11-27T16:21:29.862Z,6.08
2022-11-27T16:24:02.562Z,6.04
2022-11-27T16:26:30.429Z,6.11
2022-11-27T16:28:57.835Z,6.05
2022-11-27T16:31:25.736Z,6.16
2022-11-27T16:33:52.777Z,6.05
2022-11-27T16:36:22.669Z,6.10
2022-11-27T16:38:52.415Z,6.02
2022-11-27T16:41:19.704Z,6.10
2022-11-27T16:43:48.958Z,6.12
2022-11-27T16:46:18.451Z,6.08
2022-11-27T16:48:46.910Z,6.05
2022-11-27T16:51:20.339Z,6.00
2022-11-27T16:53:49.599Z,6.20
2022-11-27T16:56:18.962Z,6.11
2022-11-27T16:58:47.180Z,6.00
2022-11-27T17:01:20.596Z,6.01
2022-11-27T17:03:48.329Z,6.05
2022-11-27T17:06:23.123Z,5.99
2022-11-27T17:08:49.914Z,5.92
2022-11-27T17:11:20.432Z,5.95
2022-11-27T17:13:48.337Z,5.91
2022-11-27T17:16:16.091Z,5.91
2022-11-27T17:18:45.809Z,5.91
2022-11-27T17:21:18.241Z,5.87
2022-11-27T17:23:46.906Z,5.92
2022-11-27T17:26:16.790Z,5.86
2022-11-27T17:28:43.971Z,5.86
2022-11-27T17:31:17.969Z,5.91
2022-11-27T17:33:45.895Z,5.85
2022-11-27T17:36:13.519Z,5.83
2022-11-27T17:38:40.766Z,5.85
2022-11-27T17:41:10.649Z,5.82
2022-11-27T17:43:38.390Z,5.82
2022-11-27T17:46:10.843Z,5.82
2022-11-27T17:48:38.232Z,5.80
2022-11-27T17:51:06.154Z,5.83
2022-11-27T17:53:33.467Z,5.86
2022-11-27T17:56:05.248Z,5.84
2022-11-27T17:58:32.019Z,5.84
2022-11-27T18:00:58.980Z,5.84
2022-11-27T18:03:26.207Z,5.87
2022-11-27T18:05:52.962Z,5.83
2022-11-27T18:08:19.787Z,5.90
2022-11-27T18:10:46.741Z,5.91
2022-11-27T18:13:13.581Z,5.92
2022-11-27T18:15:42.649Z,5.95
2022-11-27T18:18:10.347Z,5.98
2022-11-27T18:20:37.289Z,5.99
2022-11-27T18:23:04.511Z,5.96
2022-11-27T18:25:31.448Z,5.99
2022-11-27T18:27:58.728Z,6.01
2022-11-27T18:30:25.592Z,6.06
2022-11-27T18:32:52.276Z,6.06
2022-11-27T18:35:19.026Z,5.97
2022-11-27T18:37:45.772Z,6.04
2022-11-27T18:40:12.873Z,5.99
2022-11-27T18:42:39.712Z,6.04
2022-11-27T18:45:20.222Z,6.06
2022-11-27T18:47:53.862Z,6.06
2022-11-27T18:50:24.366Z,6.09
2022-11-27T18:52:54.308Z,6.12
2022-11-27T18:55:21.049Z,6.08
2022-11-27T18:57:47.678Z,6.07
2022-11-27T19:00:14.973Z,6.02
2022-11-27T19:02:41.890Z,6.05
2022-11-27T19:05:09.774Z,6.06
2022-11-27T19:07:36.504Z,6.04
2022-11-27T19:10:03.337Z,6.02
2022-11-27T19:12:30.110Z,6.06
2022-11-27T19:14:56.782Z,6.02
2022-11-27T19:17:27.937Z,6.02
2022-11-27T19:19:57.705Z,6.10
2022-11-27T19:22:24.648Z,6.10
2022-11-27T19:24:51.363Z,6.06
2022-11-27T19:27:18.115Z,6.08
2022-11-27T19:29:44.828Z,6.07
2022-11-27T19:32:12.167Z,6.06
2022-11-27T19:34:39.564Z,6.05
2022-11-27T19:37:06.493Z,6.00
2022-11-27T19:39:33.367Z,6.04
2022-11-27T19:42:00.042Z,6.00
2022-11-27T19:44:26.764Z,5.97
2022-11-27T19:46:53.479Z,5.97
2022-11-27T19:49:21.353Z,6.00
2022-11-27T19:51:48.639Z,6.00
2022-11-27T19:54:16.888Z,6.09
2022-11-27T19:56:43.705Z,5.96
2022-11-27T19:59:12.226Z,6.00
2022-11-27T20:01:40.228Z,6.08
2022-11-27T20:04:10.162Z,5.96
2022-11-27T20:06:37.102Z,5.90
2022-11-27T20:09:06.817Z,5.91
2022-11-27T20:11:35.771Z,5.90
2022-11-27T20:14:04.277Z,5.86
2022-11-27T20:16:32.039Z,5.91
2022-11-27T20:18:59.183Z,5.92
2022-11-27T20:21:26.695Z,5.92
2022-11-27T20:23:54.340Z,5.87
2022-11-27T20:26:26.819Z,5.89
2022-11-27T20:28:54.339Z,5.90
2022-11-27T20:31:33.435Z,5.83
2022-11-27T20:34:02.662Z,5.83
2022-11-27T20:36:32.149Z,5.85
2022-11-27T20:39:00.721Z,5.91
2022-11-27T20:41:28.587Z,5.91
2022-11-27T20:44:01.552Z,5.90
2022-11-27T20:46:28.719Z,5.90
2022-11-27T20:48:56.718Z,5.90
2022-11-27T20:51:30.154Z,5.99
2022-11-27T20:53:59.385Z,5.96
2022-11-27T20:56:27.826Z,5.91
2022-11-27T20:58:55.184Z,5.96
2022-11-27T21:01:26.312Z,6.02
2022-11-27T21:03:54.307Z,6.04
2022-11-27T21:06:23.696Z,6.16
2022-11-27T21:08:50.501Z,6.00
2022-11-27T21:11:26.608Z,5.95
2022-11-27T21:13:59.064Z,5.90
2022-11-27T21:16:28.914Z,5.91
2022-11-27T21:19:01.344Z,5.89
2022-11-27T21:21:29.036Z,5.87
2022-11-27T21:23:56.191Z,5.89
2022-11-27T21:26:23.972Z,5.82
2022-11-27T21:28:51.358Z,5.87
2022-11-27T21:31:20.853Z,5.92
2022-11-27T21:33:53.377Z,5.94
2022-11-27T21:36:22.737Z,5.83
2022-11-27T21:38:49.813Z,5.85
2022-11-27T21:41:17.636Z,5.80
2022-11-27T21:43:47.754Z,5.85
2022-11-27T21:46:17.832Z,5.87
2022-11-27T21:48:45.837Z,5.93
2022-11-27T21:51:15.189Z,5.86
2022-11-27T21:53:43.454Z,5.86
2022-11-27T21:56:13.367Z,5.89
2022-11-27T21:58:40.292Z,5.86
2022-11-27T22:01:12.123Z,5.86
2022-11-27T22:03:42.594Z,5.82
2022-11-27T22:06:12.680Z,5.81
2022-11-27T22:08:41.250Z,5.78
2022-11-27T22:11:10.422Z,5.81
2022-11-27T22:13:37.307Z,5.77
2022-11-27T22:16:12.925Z,5.79
2022-11-27T22:18:39.851Z,5.79
2022-11-27T22:21:08.172Z,5.80
2022-11-27T22:23:35.763Z,5.90
2022-11-27T22:26:04.055Z,5.80
2022-11-27T22:28:31.194Z,5.79
2022-11-27T22:30:58.232Z,5.75
2022-11-27T22:33:25.349Z,5.71
2022-11-27T22:35:52.062Z,5.70
2022-11-27T22:38:18.798Z,5.68
2022-11-27T22:40:45.762Z,5.70
2022-11-27T22:43:12.457Z,5.66
2022-11-27T22:45:39.804Z,5.64
2022-11-27T22:48:06.806Z,5.55
2022-11-27T22:50:33.973Z,5.52
2022-11-27T22:53:00.728Z,5.50
2022-11-27T22:55:28.149Z,5.49
2022-11-27T22:57:55.233Z,5.43
2022-11-27T23:00:22.841Z,5.43
2022-11-27T23:02:49.577Z,5.46
2022-11-27T23:05:16.363Z,5.43
2022-11-27T23:07:43.118Z,5.43
2022-11-27T23:10:10.466Z,5.38
2022-11-27T23:12:37.378Z,5.43
2022-11-27T23:15:04.862Z,5.36
2022-11-27T23:17:31.686Z,5.32
2022-11-27T23:19:58.474Z,5.33
2022-11-27T23:22:25.214Z,5.31
2022-11-27T23:24:53.493Z,5.38
2022-11-27T23:27:20.205Z,5.31
2022-11-27T23:29:47.101Z,5.35
2022-11-27T23:32:13.853Z,5.26
2022-11-27T23:34:40.667Z,5.26
2022-11-27T23:37:07.699Z,5.32
2022-11-27T23:39:34.430Z,5.30
2022-11-27T23:42:01.221Z,5.34
2022-11-27T23:44:28.124Z,5.26
2022-11-27T23:46:54.873Z,5.26
2022-11-27T23:49:21.583Z,5.20
2022-11-27T23:51:48.276Z,5.23
2022-11-27T23:54:15.349Z,5.21
2022-11-27T23:56:44.199Z,5.19
2022-11-27T23:59:10.925Z,5.19
